Saga Sapphire — 9HOF8 — position and weather

sailwx.info

Track history (hours):
 
Tides and Currents Weather Stations Pressure Air Temp Water Temp Dewpoint Dewpoint Depression Visibility Wind Speed Wind Dir Waves Ship Positions

Saga Sapphire

Last reported at 2018-Apr-26 04:00 UTC. Time now 2018-Apr-26 19:15 UTC.
Position N 35°48' W 010°36'.

Length 200 m; draft 8.3 m.

Type: Ship. MMSI: 256208000.

Wind from 360 at 21 knots

Barometer 1018.4 mb
Air temperature 15.0 ° C
Visibility: greater than 10.8 NM
Dewpoint 13.2 ° C
Water temperature 14.0 ° C

Date/timePositionNaut miles runAvg speedWind from/ knotsBaromVisibWave heightAir tempDewpointWater temp
2018-Apr-26 04:00N 35°48' W 010°36'7116.9 360 / 211018.410.8 15.013.214.0
2018-Apr-25 23:46N 36°56' W 010°08'415.9
2018-Apr-25 23:30N 36°60' W 010°07'815.8
2018-Apr-25 23:00N 37°08' W 010°05'816.0
2018-Apr-25 22:30N 37°16' W 010°03'816.2
2018-Apr-25 22:00N 37°23' W 010°01'816.3
2018-Apr-25 21:30N 37°32' W 010°01'816.3
2018-Apr-25 21:00N 37°40' W 010°00'4605.4
2018-Apr-25 21:00N 37°36' W 010°00'1323.5 360 / 211020.2 5.4 15.013.2
2018-Apr-25 20:27N 37°49' W 009°59'815.9
2018-Apr-25 19:59N 37°56' W 009°56'715.4
2018-Apr-25 19:30N 38°03' W 009°54'714.9
2018-Apr-25 19:00N 38°10' W 009°52'816.1
2018-Apr-25 18:30N 38°18' W 009°49'816.3
2018-Apr-25 18:00N 38°26' W 009°47'4246.7
2018-Apr-25 18:00N 38°24' W 009°42'918.9 350 / 351018.2 5.4 15.812.514.0
2018-Apr-25 17:30N 38°33' W 009°44'3 6.7
2018-Apr-25 17:00N 38°35' W 009°40'2 3.9
2018-Apr-25 16:29N 38°35' W 009°38'2 3.4
2018-Apr-25 16:00N 38°35' W 009°35'2 3.3
2018-Apr-25 15:30N 38°35' W 009°33'2 3.1
2018-Apr-25 15:00N 38°35' W 009°31'2 3.8
2018-Apr-25 14:30N 38°35' W 009°29'2 4.0
2018-Apr-25 14:00N 38°35' W 009°26'2 4.7
2018-Apr-25 13:30N 38°36' W 009°24'612.9
2018-Apr-25 13:00N 38°40' W 009°18'5 9.6
2018-Apr-25 12:31N 38°41' W 009°12'2 3.8
2018-Apr-25 11:58N 38°42' W 009°10'0 0.0
2018-Apr-25 11:26N 38°42' W 009°10'0 0.0
2018-Apr-25 10:55N 38°42' W 009°10'0 0.0
2018-Apr-25 10:28N 38°42' W 009°10'0 0.0
2018-Apr-25 09:56N 38°42' W 009°10'0 0.0
2018-Apr-25 09:20N 38°42' W 009°10'0 0.0
2018-Apr-25 08:57N 38°42' W 009°10'0 0.0
2018-Apr-25 08:27N 38°42' W 009°10'0 0.0
2018-Apr-25 07:59N 38°42' W 009°10'0 0.0
2018-Apr-25 07:25N 38°42' W 009°10'0 0.0
2018-Apr-25 07:00N 38°42' W 009°10'0 0.0
2018-Apr-25 06:30N 38°42' W 009°10'0 0.0
2018-Apr-25 05:57N 38°42' W 009°10'0 0.0
2018-Apr-25 05:30N 38°42' W 009°10'0 0.0
2018-Apr-25 04:58N 38°42' W 009°10'0 0.0
2018-Apr-25 04:17N 38°42' W 009°10'0 0.0
2018-Apr-25 03:57N 38°42' W 009°10'0 0.0
2018-Apr-25 03:27N 38°42' W 009°10'0 0.0
2018-Apr-25 02:57N 38°42' W 009°10'0 0.0
2018-Apr-25 02:27N 38°42' W 009°10'0 0.0
2018-Apr-25 01:57N 38°42' W 009°10'0 0.0
2018-Apr-25 01:27N 38°42' W 009°10'0 0.0
2018-Apr-25 00:59N 38°42' W 009°10'0 0.0
2018-Apr-25 00:29N 38°42' W 009°10'0 0.0
2018-Apr-24 23:53N 38°42' W 009°10'0 0.0
2018-Apr-24 23:28N 38°42' W 009°10'0 0.0
2018-Apr-24 22:51N 38°42' W 009°10'0 0.0
2018-Apr-24 22:29N 38°42' W 009°10'0 0.0
2018-Apr-24 21:55N 38°42' W 009°10'0 0.0
2018-Apr-24 21:30N 38°42' W 009°10'0 0.0
2018-Apr-24 20:53N 38°42' W 009°10'0 0.0
2018-Apr-24 20:28N 38°42' W 009°10'0 0.0
2018-Apr-24 19:58N 38°42' W 009°10'0 0.0
2018-Apr-24 19:30N 38°42' W 009°10'0 0.0
2018-Apr-24 19:00N 38°42' W 009°10'0 0.0
2018-Apr-24 18:30N 38°42' W 009°10'0 0.0
2018-Apr-24 17:55N 38°42' W 009°10'0 0.0
2018-Apr-24 17:25N 38°42' W 009°10'0 0.0
2018-Apr-24 16:58N 38°42' W 009°10'0 0.0
2018-Apr-24 16:30N 38°42' W 009°10'0 0.0
2018-Apr-24 16:00N 38°42' W 009°10'0 0.0
2018-Apr-24 15:31N 38°42' W 009°10'0 0.0
2018-Apr-24 14:57N 38°42' W 009°10'0 0.0
2018-Apr-24 14:30N 38°42' W 009°10'0 0.0
2018-Apr-24 14:00N 38°42' W 009°10'0 0.0
2018-Apr-24 13:30N 38°42' W 009°10'0 0.0
2018-Apr-24 13:01N 38°42' W 009°10'0 0.0
2018-Apr-24 12:30N 38°42' W 009°10'0 0.0
2018-Apr-24 12:00N 38°42' W 009°10'0 0.0
2018-Apr-24 11:28N 38°42' W 009°10'0 0.4
2018-Apr-24 11:00N 38°42' W 009°09'2 3.9
2018-Apr-24 10:30N 38°41' W 009°12'5 9.2
2018-Apr-24 10:00N 38°41' W 009°17'510.2
2018-Apr-24 09:30N 38°37' W 009°22'4 8.0
2018-Apr-24 09:00N 38°35' W 009°26'4 7.2
2018-Apr-24 08:30N 38°32' W 009°29'3 6.7
2018-Apr-24 08:00N 38°29' W 009°32'3 6.6
2018-Apr-24 07:30N 38°27' W 009°35'4 8.2
2018-Apr-24 07:00N 38°23' W 009°37'4 8.5
2018-Apr-24 06:30N 38°19' W 009°39'4 8.5
2018-Apr-24 06:00N 38°15' W 009°41'4 8.5
2018-Apr-24 05:30N 38°12' W 009°44'4 8.7
2018-Apr-24 05:00N 38°08' W 009°47'4 8.5
2018-Apr-24 04:30N 38°05' W 009°50'4 8.4
2018-Apr-24 04:00N 38°01' W 009°53'4 8.1
2018-Apr-24 03:30N 37°58' W 009°55'4 8.1
2018-Apr-24 03:00N 37°54' W 009°58'4 8.0
2018-Apr-24 02:30N 37°51' W 010°00'4 8.0
2018-Apr-24 01:59N 37°47' W 010°03'5 8.0
2018-Apr-24 01:24N 37°43' W 010°06'3 8.2
2018-Apr-24 01:00N 37°40' W 010°08'7 8.2
2018-Apr-24 00:08N 37°34' W 010°13'1 6.8
2018-Apr-23 23:59N 37°34' W 010°12'5 9.9
2018-Apr-23 23:29N 37°37' W 010°08'510.4
2018-Apr-23 22:58N 37°40' W 010°02'5 9.9
2018-Apr-23 22:30N 37°42' W 009°57'5 9.6
2018-Apr-23 22:00N 37°46' W 009°52'4 8.7
2018-Apr-23 21:30N 37°49' W 009°49'4 8.3
2018-Apr-23 21:00N 37°51' W 009°44'714.4
2018-Apr-23 20:30N 37°58' W 009°41'917.4
2018-Apr-23 20:00N 38°06' W 009°37'917.3
2018-Apr-23 19:30N 38°14' W 009°34'917.4
2018-Apr-23 19:00N 38°23' W 009°31'816.9
2018-Apr-23 18:30N 38°31' W 009°29'815.5
2018-Apr-23 18:00N 38°37' W 009°23'612.1
2018-Apr-23 17:30N 38°41' W 009°17'510.0
2018-Apr-23 17:00N 38°41' W 009°11'3 4.7
2018-Apr-23 16:27N 38°43' W 009°08'0 0.0
2018-Apr-23 16:00N 38°43' W 009°08'0 0.0
2018-Apr-23 15:31N 38°43' W 009°08'0 0.0
2018-Apr-23 14:58N 38°43' W 009°08'0 0.0
2018-Apr-23 14:28N 38°43' W 009°08'0 0.0
2018-Apr-23 14:00N 38°43' W 009°08'0 0.0
2018-Apr-23 13:30N 38°43' W 009°08'0 0.0
2018-Apr-23 12:58N 38°43' W 009°08'0 0.0
2018-Apr-23 12:29N 38°43' W 009°08'0 0.0
2018-Apr-23 11:53N 38°43' W 009°08'0 0.0
2018-Apr-23 11:30N 38°43' W 009°08'0 0.0
2018-Apr-23 10:59N 38°43' W 009°08'0 0.0
2018-Apr-23 10:25N 38°43' W 009°08'0 0.0
2018-Apr-23 10:00N 38°43' W 009°08'0 0.0
2018-Apr-23 09:22N 38°43' W 009°08'0 0.0
2018-Apr-23 08:54N 38°43' W 009°08'0 0.0
2018-Apr-23 08:30N 38°43' W 009°08'0 0.0
2018-Apr-23 07:58N 38°43' W 009°08'0 0.0
2018-Apr-23 07:28N 38°43' W 009°08'0 0.0
2018-Apr-23 06:58N 38°43' W 009°08'0 0.0
2018-Apr-23 06:30N 38°43' W 009°08'0 0.0
2018-Apr-23 06:00N 38°43' W 009°08'0 0.0
2018-Apr-23 05:30N 38°43' W 009°08'1 2.0
2018-Apr-23 05:00N 38°42' W 009°09'3 7.0
2018-Apr-23 04:30N 38°41' W 009°13'4 7.8
2018-Apr-23 04:00N 38°40' W 009°18'510.7
2018-Apr-23 03:30N 38°37' W 009°23'510.5
2018-Apr-23 03:00N 38°37' W 009°30'713.3
2018-Apr-23 02:30N 38°38' W 009°38'611.1
2018-Apr-23 02:01N 38°42' W 009°43'714.9
2018-Apr-23 01:30N 38°50' W 009°43'815.9
2018-Apr-23 01:00N 38°57' W 009°46'815.2
2018-Apr-23 00:30N 39°04' W 009°52'815.3
2018-Apr-23 00:00N 39°11' W 009°55'815.5
2018-Apr-22 23:30N 39°18' W 010°00'714.9
2018-Apr-22 23:00N 39°24' W 010°05'714.9
2018-Apr-22 22:30N 39°31' W 010°09'51915.0
2018-Apr-21 11:58N 47°40' W 006°12'1117.5
2018-Apr-21 11:21N 47°49' W 006°03'617.5
2018-Apr-21 11:00N 47°55' W 005°59'3316.9
2018-Apr-21 09:02N 48°23' W 005°32'116.1
2018-Apr-21 09:00N 48°23' W 005°32'815.5
2018-Apr-21 08:31N 48°30' W 005°26'714.7
2018-Apr-21 08:00N 48°35' W 005°18'4914.9
2018-Apr-21 04:43N 49°09' W 004°24'2517.3
2018-Apr-21 03:18N 49°26' W 003°57'718.0
2018-Apr-21 02:53N 49°31' W 003°48'817.9
2018-Apr-21 02:27N 49°36' W 003°40'817.7
2018-Apr-21 02:00N 49°42' W 003°31'917.4
2018-Apr-21 01:30N 49°47' W 003°21'816.6
2018-Apr-21 01:00N 49°52' W 003°11'815.9
2018-Apr-21 00:30N 49°57' W 003°01'815.1
2018-Apr-20 23:58N 49°60' W 002°49'714.6
2018-Apr-20 23:30N 50°02' W 002°39'714.1
2018-Apr-20 23:00N 50°05' W 002°29'713.7
2018-Apr-20 22:30N 50°07' W 002°19'713.6
2018-Apr-20 22:00N 50°10' W 002°09'714.0
2018-Apr-20 21:30N 50°14' W 002°00'714.5
2018-Apr-20 21:00N 50°18' W 001°51'815.1
2018-Apr-20 20:30N 50°22' W 001°41'815.8
2018-Apr-20 20:00N 50°25' W 001°29'816.2
2018-Apr-20 19:30N 50°29' W 001°18'815.3
2018-Apr-20 19:00N 50°34' W 001°09'611.9
2018-Apr-20 18:30N 50°37' W 001°01'510.2
2018-Apr-20 18:00N 50°42' W 000°58'3 5.7
2018-Apr-20 17:30N 50°43' W 001°02'4 7.6
2018-Apr-20 17:01N 50°45' W 001°07'713.5
2018-Apr-20 16:30N 50°47' W 001°18'4 8.3
2018-Apr-20 16:00N 50°51' W 001°20'5 9.1
2018-Apr-20 15:30N 50°54' W 001°25'0 0.4
2018-Apr-20 14:59N 50°54' W 001°25'0 0.0
2018-Apr-20 14:23N 50°54' W 001°25'0 0.0
2018-Apr-20 13:59N 50°54' W 001°25'0 0.0
2018-Apr-20 13:20N 50°54' W 001°25'0 0.0
2018-Apr-20 12:53N 50°54' W 001°25'0 0.0
2018-Apr-20 12:20N 50°54' W 001°25'0 0.0
2018-Apr-20 11:53N 50°54' W 001°25'0 0.0
2018-Apr-20 11:29N 50°54' W 001°25'0 0.0
2018-Apr-20 10:59N 50°54' W 001°25'0 0.0
2018-Apr-20 10:26N 50°54' W 001°25'0 0.0
2018-Apr-20 09:56N 50°54' W 001°25'0 0.0
2018-Apr-20 09:29N 50°54' W 001°25'0 0.0
2018-Apr-20 08:56N 50°54' W 001°25'0 0.0
2018-Apr-20 08:23N 50°54' W 001°25'0 0.0
2018-Apr-20 07:56N 50°54' W 001°25'0 0.0
2018-Apr-20 07:29N 50°54' W 001°25'0 0.0
2018-Apr-20 06:59N 50°54' W 001°25'0 0.3
2018-Apr-20 06:31N 50°54' W 001°25'2 4.9
2018-Apr-20 06:00N 50°52' W 001°22'5 9.3
2018-Apr-20 05:30N 50°49' W 001°18'4 7.3
2018-Apr-20 05:00N 50°46' W 001°14'815.7
2018-Apr-20 04:30N 50°43' W 001°02'5 9.8
2018-Apr-20 04:00N 50°39' W 000°59'5 9.8
2018-Apr-20 03:30N 50°34' W 001°01'611.7
2018-Apr-20 03:00N 50°31' W 001°08'612.3
2018-Apr-20 02:30N 50°27' W 001°16'611.7
2018-Apr-20 02:00N 50°26' W 001°25'712.8
2018-Apr-20 01:30N 50°25' W 001°35'713.7
2018-Apr-20 01:00N 50°24' W 001°46'713.5
2018-Apr-20 00:30N 50°23' W 001°56'714.9
2018-Apr-20 00:00N 50°20' W 002°07'815.8
2018-Apr-19 23:30N 50°17' W 002°19'816.2
2018-Apr-19 23:00N 50°15' W 002°31'917.4
2018-Apr-19 22:29N 50°13' W 002°45'817.7
2018-Apr-19 22:00N 50°13' W 002°58'917.8
2018-Apr-19 21:30N 50°08' W 003°10'918.2
2018-Apr-19 21:00N 50°03' W 003°21'917.7
2018-Apr-19 20:30N 49°56' W 003°31'917.6
2018-Apr-19 20:01N 49°49' W 003°38'917.1
2018-Apr-19 19:30N 49°41' W 003°43'917.0
2018-Apr-19 19:00N 49°33' W 003°50'1017.8
2018-Apr-19 18:27N 49°26' W 004°00'1617.6
2018-Apr-19 17:33N 49°15' W 004°17'4617.2
2018-Apr-19 14:53N 48°43' W 005°08'1616.1
2018-Apr-19 13:53N 48°31' W 005°24'1414.8
2018-Apr-19 12:58N 48°20' W 005°34'1215.3
2018-Apr-19 12:11N 48°09' W 005°41'315.1
2018-Apr-19 12:00N 48°06' W 005°43'714.9
2018-Apr-19 11:30N 47°60' W 005°49'714.8
2018-Apr-19 11:00N 47°54' W 005°55'914.9
2018-Apr-19 10:22N 47°46' W 006°02'514.9
2018-Apr-19 10:00N 47°41' W 006°07'915.1
2018-Apr-19 09:23N 47°33' W 006°14'39611.6
2018-Apr-17 23:15N 41°14' W 008°53'412.5
2018-Apr-17 22:58N 41°12' W 008°49'511.5
2018-Apr-17 22:30N 41°10' W 008°43'1 2.8
2018-Apr-17 21:58N 41°11' W 008°42'0 0.0
2018-Apr-17 21:28N 41°11' W 008°42'0 0.0
2018-Apr-17 21:00N 41°11' W 008°42'0 0.0
2018-Apr-17 20:31N 41°11' W 008°42'0 0.0
2018-Apr-17 19:59N 41°11' W 008°42'0 0.0
2018-Apr-17 19:29N 41°11' W 008°42'0 0.0
2018-Apr-17 19:00N 41°11' W 008°42'0 0.0
2018-Apr-17 18:31N 41°11' W 008°42'0 0.0
2018-Apr-17 18:00N 41°11' W 008°42'0 0.0
2018-Apr-17 17:29N 41°11' W 008°42'0 0.0
2018-Apr-17 16:59N 41°11' W 008°42'0 0.0
2018-Apr-17 16:29N 41°11' W 008°42'0 0.0
2018-Apr-17 15:59N 41°11' W 008°42'0 0.0
2018-Apr-17 15:29N 41°11' W 008°42'0 0.0
2018-Apr-17 14:59N 41°11' W 008°42'0 0.0
2018-Apr-17 14:29N 41°11' W 008°42'0 0.0
2018-Apr-17 13:59N 41°11' W 008°42'0 0.0
2018-Apr-17 13:29N 41°11' W 008°42'0 0.0
2018-Apr-17 12:59N 41°11' W 008°42'0 0.0
2018-Apr-17 12:28N 41°11' W 008°42'0 0.0
2018-Apr-17 11:58N 41°11' W 008°42'0 0.0
2018-Apr-17 11:28N 41°11' W 008°42'0 0.0
2018-Apr-17 10:58N 41°11' W 008°42'0 0.0
2018-Apr-17 10:28N 41°11' W 008°42'0 0.0
2018-Apr-17 09:58N 41°11' W 008°42'0 0.0
2018-Apr-17 09:30N 41°11' W 008°42'0 0.0
2018-Apr-17 09:00N 41°11' W 008°42'0 0.0
2018-Apr-17 08:30N 41°11' W 008°42'0 0.0
2018-Apr-17 08:00N 41°11' W 008°42'0 0.0
2018-Apr-17 07:30N 41°11' W 008°42'0 0.0
2018-Apr-17 07:00N 41°11' W 008°42'0 0.0
2018-Apr-17 06:31N 41°11' W 008°42'2 3.7
2018-Apr-17 06:00N 41°09' W 008°43'4 8.8
2018-Apr-17 05:30N 41°06' W 008°46'10013.3
2018-Apr-16 22:00N 39°35' W 009°40'714.4
2018-Apr-16 21:30N 39°28' W 009°44'715.0
2018-Apr-16 21:01N 39°21' W 009°47'714.6
2018-Apr-16 20:30N 39°14' W 009°49'714.5
2018-Apr-16 20:00N 39°07' W 009°50'714.5
2018-Apr-16 19:30N 38°60' W 009°51'714.4
2018-Apr-16 19:00N 38°53' W 009°51'714.4
2018-Apr-16 18:30N 38°45' W 009°51'714.6
2018-Apr-16 18:00N 38°38' W 009°49'714.4
2018-Apr-16 17:30N 38°32' W 009°45'714.6
2018-Apr-16 17:00N 38°24' W 009°44'814.8
2018-Apr-16 16:26N 38°16' W 009°42'614.7
2018-Apr-16 16:00N 38°10' W 009°40'714.7
2018-Apr-16 15:31N 38°03' W 009°38'714.7
2018-Apr-16 15:01N 37°56' W 009°35'714.8
2018-Apr-16 14:31N 37°49' W 009°33'714.7
2018-Apr-16 14:00N 37°41' W 009°31'  
Track history (hours):
 
Tides and Currents Weather Stations Pressure Air Temp Water Temp Dewpoint Dewpoint Depression Visibility Wind Speed Wind Dir Waves Ship Positions

Saga Sapphire

Last reported at 2018-Apr-26 04:00 UTC. Time now 2018-Apr-26 19:15 UTC.
Position N 35°48' W 010°36'.

Length 200 m; draft 8.3 m.

Type: Ship. MMSI: 256208000.

Wind from 360 at 21 knots

Barometer 1018.4 mb
Air temperature 15.0 ° C
Visibility: greater than 10.8 NM
Dewpoint 13.2 ° C
Water temperature 14.0 ° C

Date/timePositionNaut miles runAvg speedWind from/ knotsBaromVisibWave heightAir tempDewpointWater temp
2018-Apr-26 04:00N 35°48' W 010°36'7116.9 360 / 211018.410.8 15.013.214.0
2018-Apr-25 23:46N 36°56' W 010°08'415.9
2018-Apr-25 23:30N 36°60' W 010°07'815.8
2018-Apr-25 23:00N 37°08' W 010°05'816.0
2018-Apr-25 22:30N 37°16' W 010°03'816.2
2018-Apr-25 22:00N 37°23' W 010°01'816.3
2018-Apr-25 21:30N 37°32' W 010°01'816.3
2018-Apr-25 21:00N 37°40' W 010°00'4605.4
2018-Apr-25 21:00N 37°36' W 010°00'1323.5 360 / 211020.2 5.4 15.013.2
2018-Apr-25 20:27N 37°49' W 009°59'815.9
2018-Apr-25 19:59N 37°56' W 009°56'715.4
2018-Apr-25 19:30N 38°03' W 009°54'714.9
2018-Apr-25 19:00N 38°10' W 009°52'816.1
2018-Apr-25 18:30N 38°18' W 009°49'816.3
2018-Apr-25 18:00N 38°26' W 009°47'4246.7
2018-Apr-25 18:00N 38°24' W 009°42'918.9 350 / 351018.2 5.4 15.812.514.0
2018-Apr-25 17:30N 38°33' W 009°44'3 6.7
2018-Apr-25 17:00N 38°35' W 009°40'2 3.9
2018-Apr-25 16:29N 38°35' W 009°38'2 3.4
2018-Apr-25 16:00N 38°35' W 009°35'2 3.3
2018-Apr-25 15:30N 38°35' W 009°33'2 3.1
2018-Apr-25 15:00N 38°35' W 009°31'2 3.8
2018-Apr-25 14:30N 38°35' W 009°29'2 4.0
2018-Apr-25 14:00N 38°35' W 009°26'2 4.7
2018-Apr-25 13:30N 38°36' W 009°24'612.9
2018-Apr-25 13:00N 38°40' W 009°18'5 9.6
2018-Apr-25 12:31N 38°41' W 009°12'2 3.8
2018-Apr-25 11:58N 38°42' W 009°10'0 0.0
2018-Apr-25 11:26N 38°42' W 009°10'0 0.0
2018-Apr-25 10:55N 38°42' W 009°10'0 0.0
2018-Apr-25 10:28N 38°42' W 009°10'0 0.0
2018-Apr-25 09:56N 38°42' W 009°10'0 0.0
2018-Apr-25 09:20N 38°42' W 009°10'0 0.0
2018-Apr-25 08:57N 38°42' W 009°10'0 0.0
2018-Apr-25 08:27N 38°42' W 009°10'0 0.0
2018-Apr-25 07:59N 38°42' W 009°10'0 0.0
2018-Apr-25 07:25N 38°42' W 009°10'0 0.0
2018-Apr-25 07:00N 38°42' W 009°10'0 0.0
2018-Apr-25 06:30N 38°42' W 009°10'0 0.0
2018-Apr-25 05:57N 38°42' W 009°10'0 0.0
2018-Apr-25 05:30N 38°42' W 009°10'0 0.0
2018-Apr-25 04:58N 38°42' W 009°10'0 0.0
2018-Apr-25 04:17N 38°42' W 009°10'0 0.0
2018-Apr-25 03:57N 38°42' W 009°10'0 0.0
2018-Apr-25 03:27N 38°42' W 009°10'0 0.0
2018-Apr-25 02:57N 38°42' W 009°10'0 0.0
2018-Apr-25 02:27N 38°42' W 009°10'0 0.0
2018-Apr-25 01:57N 38°42' W 009°10'0 0.0
2018-Apr-25 01:27N 38°42' W 009°10'0 0.0
2018-Apr-25 00:59N 38°42' W 009°10'0 0.0
2018-Apr-25 00:29N 38°42' W 009°10'0 0.0
2018-Apr-24 23:53N 38°42' W 009°10'0 0.0
2018-Apr-24 23:28N 38°42' W 009°10'0 0.0
2018-Apr-24 22:51N 38°42' W 009°10'0 0.0
2018-Apr-24 22:29N 38°42' W 009°10'0 0.0
2018-Apr-24 21:55N 38°42' W 009°10'0 0.0
2018-Apr-24 21:30N 38°42' W 009°10'0 0.0
2018-Apr-24 20:53N 38°42' W 009°10'0 0.0
2018-Apr-24 20:28N 38°42' W 009°10'0 0.0
2018-Apr-24 19:58N 38°42' W 009°10'0 0.0
2018-Apr-24 19:30N 38°42' W 009°10'0 0.0
2018-Apr-24 19:00N 38°42' W 009°10'0 0.0
2018-Apr-24 18:30N 38°42' W 009°10'0 0.0
2018-Apr-24 17:55N 38°42' W 009°10'0 0.0
2018-Apr-24 17:25N 38°42' W 009°10'0 0.0
2018-Apr-24 16:58N 38°42' W 009°10'0 0.0
2018-Apr-24 16:30N 38°42' W 009°10'0 0.0
2018-Apr-24 16:00N 38°42' W 009°10'0 0.0
2018-Apr-24 15:31N 38°42' W 009°10'0 0.0
2018-Apr-24 14:57N 38°42' W 009°10'0 0.0
2018-Apr-24 14:30N 38°42' W 009°10'0 0.0
2018-Apr-24 14:00N 38°42' W 009°10'0 0.0
2018-Apr-24 13:30N 38°42' W 009°10'0 0.0
2018-Apr-24 13:01N 38°42' W 009°10'0 0.0
2018-Apr-24 12:30N 38°42' W 009°10'0 0.0
2018-Apr-24 12:00N 38°42' W 009°10'0 0.0
2018-Apr-24 11:28N 38°42' W 009°10'0 0.4
2018-Apr-24 11:00N 38°42' W 009°09'2 3.9
2018-Apr-24 10:30N 38°41' W 009°12'5 9.2
2018-Apr-24 10:00N 38°41' W 009°17'510.2
2018-Apr-24 09:30N 38°37' W 009°22'4 8.0
2018-Apr-24 09:00N 38°35' W 009°26'4 7.2
2018-Apr-24 08:30N 38°32' W 009°29'3 6.7
2018-Apr-24 08:00N 38°29' W 009°32'3 6.6
2018-Apr-24 07:30N 38°27' W 009°35'4 8.2
2018-Apr-24 07:00N 38°23' W 009°37'4 8.5
2018-Apr-24 06:30N 38°19' W 009°39'4 8.5
2018-Apr-24 06:00N 38°15' W 009°41'4 8.5
2018-Apr-24 05:30N 38°12' W 009°44'4 8.7
2018-Apr-24 05:00N 38°08' W 009°47'4 8.5
2018-Apr-24 04:30N 38°05' W 009°50'4 8.4
2018-Apr-24 04:00N 38°01' W 009°53'4 8.1
2018-Apr-24 03:30N 37°58' W 009°55'4 8.1
2018-Apr-24 03:00N 37°54' W 009°58'4 8.0
2018-Apr-24 02:30N 37°51' W 010°00'4 8.0
2018-Apr-24 01:59N 37°47' W 010°03'5 8.0
2018-Apr-24 01:24N 37°43' W 010°06'3 8.2
2018-Apr-24 01:00N 37°40' W 010°08'7 8.2
2018-Apr-24 00:08N 37°34' W 010°13'1 6.8
2018-Apr-23 23:59N 37°34' W 010°12'5 9.9
2018-Apr-23 23:29N 37°37' W 010°08'510.4
2018-Apr-23 22:58N 37°40' W 010°02'5 9.9
2018-Apr-23 22:30N 37°42' W 009°57'5 9.6
2018-Apr-23 22:00N 37°46' W 009°52'4 8.7
2018-Apr-23 21:30N 37°49' W 009°49'4 8.3
2018-Apr-23 21:00N 37°51' W 009°44'714.4
2018-Apr-23 20:30N 37°58' W 009°41'917.4
2018-Apr-23 20:00N 38°06' W 009°37'917.3
2018-Apr-23 19:30N 38°14' W 009°34'917.4
2018-Apr-23 19:00N 38°23' W 009°31'816.9
2018-Apr-23 18:30N 38°31' W 009°29'815.5
2018-Apr-23 18:00N 38°37' W 009°23'612.1
2018-Apr-23 17:30N 38°41' W 009°17'510.0
2018-Apr-23 17:00N 38°41' W 009°11'3 4.7
2018-Apr-23 16:27N 38°43' W 009°08'0 0.0
2018-Apr-23 16:00N 38°43' W 009°08'0 0.0
2018-Apr-23 15:31N 38°43' W 009°08'0 0.0
2018-Apr-23 14:58N 38°43' W 009°08'0 0.0
2018-Apr-23 14:28N 38°43' W 009°08'0 0.0
2018-Apr-23 14:00N 38°43' W 009°08'0 0.0
2018-Apr-23 13:30N 38°43' W 009°08'0 0.0
2018-Apr-23 12:58N 38°43' W 009°08'0 0.0
2018-Apr-23 12:29N 38°43' W 009°08'0 0.0
2018-Apr-23 11:53N 38°43' W 009°08'0 0.0
2018-Apr-23 11:30N 38°43' W 009°08'0 0.0
2018-Apr-23 10:59N 38°43' W 009°08'0 0.0
2018-Apr-23 10:25N 38°43' W 009°08'0 0.0
2018-Apr-23 10:00N 38°43' W 009°08'0 0.0
2018-Apr-23 09:22N 38°43' W 009°08'0 0.0
2018-Apr-23 08:54N 38°43' W 009°08'0 0.0
2018-Apr-23 08:30N 38°43' W 009°08'0 0.0
2018-Apr-23 07:58N 38°43' W 009°08'0 0.0
2018-Apr-23 07:28N 38°43' W 009°08'0 0.0
2018-Apr-23 06:58N 38°43' W 009°08'0 0.0
2018-Apr-23 06:30N 38°43' W 009°08'0 0.0
2018-Apr-23 06:00N 38°43' W 009°08'0 0.0
2018-Apr-23 05:30N 38°43' W 009°08'1 2.0
2018-Apr-23 05:00N 38°42' W 009°09'3 7.0
2018-Apr-23 04:30N 38°41' W 009°13'4 7.8
2018-Apr-23 04:00N 38°40' W 009°18'510.7
2018-Apr-23 03:30N 38°37' W 009°23'510.5
2018-Apr-23 03:00N 38°37' W 009°30'713.3
2018-Apr-23 02:30N 38°38' W 009°38'611.1
2018-Apr-23 02:01N 38°42' W 009°43'714.9
2018-Apr-23 01:30N 38°50' W 009°43'815.9
2018-Apr-23 01:00N 38°57' W 009°46'815.2
2018-Apr-23 00:30N 39°04' W 009°52'815.3
2018-Apr-23 00:00N 39°11' W 009°55'815.5
2018-Apr-22 23:30N 39°18' W 010°00'714.9
2018-Apr-22 23:00N 39°24' W 010°05'714.9
2018-Apr-22 22:30N 39°31' W 010°09'51915.0
2018-Apr-21 11:58N 47°40' W 006°12'1117.5
2018-Apr-21 11:21N 47°49' W 006°03'617.5
2018-Apr-21 11:00N 47°55' W 005°59'3316.9
2018-Apr-21 09:02N 48°23' W 005°32'116.1
2018-Apr-21 09:00N 48°23' W 005°32'815.5
2018-Apr-21 08:31N 48°30' W 005°26'714.7
2018-Apr-21 08:00N 48°35' W 005°18'4914.9
2018-Apr-21 04:43N 49°09' W 004°24'2517.3
2018-Apr-21 03:18N 49°26' W 003°57'718.0
2018-Apr-21 02:53N 49°31' W 003°48'817.9
2018-Apr-21 02:27N 49°36' W 003°40'817.7
2018-Apr-21 02:00N 49°42' W 003°31'917.4
2018-Apr-21 01:30N 49°47' W 003°21'816.6
2018-Apr-21 01:00N 49°52' W 003°11'815.9
2018-Apr-21 00:30N 49°57' W 003°01'815.1
2018-Apr-20 23:58N 49°60' W 002°49'714.6
2018-Apr-20 23:30N 50°02' W 002°39'714.1
2018-Apr-20 23:00N 50°05' W 002°29'713.7
2018-Apr-20 22:30N 50°07' W 002°19'713.6
2018-Apr-20 22:00N 50°10' W 002°09'714.0
2018-Apr-20 21:30N 50°14' W 002°00'714.5
2018-Apr-20 21:00N 50°18' W 001°51'815.1
2018-Apr-20 20:30N 50°22' W 001°41'815.8
2018-Apr-20 20:00N 50°25' W 001°29'816.2
2018-Apr-20 19:30N 50°29' W 001°18'815.3
2018-Apr-20 19:00N 50°34' W 001°09'611.9
2018-Apr-20 18:30N 50°37' W 001°01'510.2
2018-Apr-20 18:00N 50°42' W 000°58'3 5.7
2018-Apr-20 17:30N 50°43' W 001°02'4 7.6
2018-Apr-20 17:01N 50°45' W 001°07'713.5
2018-Apr-20 16:30N 50°47' W 001°18'4 8.3
2018-Apr-20 16:00N 50°51' W 001°20'5 9.1
2018-Apr-20 15:30N 50°54' W 001°25'0 0.4
2018-Apr-20 14:59N 50°54' W 001°25'0 0.0
2018-Apr-20 14:23N 50°54' W 001°25'0 0.0
2018-Apr-20 13:59N 50°54' W 001°25'0 0.0
2018-Apr-20 13:20N 50°54' W 001°25'0 0.0
2018-Apr-20 12:53N 50°54' W 001°25'0 0.0
2018-Apr-20 12:20N 50°54' W 001°25'0 0.0
2018-Apr-20 11:53N 50°54' W 001°25'0 0.0
2018-Apr-20 11:29N 50°54' W 001°25'0 0.0
2018-Apr-20 10:59N 50°54' W 001°25'0 0.0
2018-Apr-20 10:26N 50°54' W 001°25'0 0.0
2018-Apr-20 09:56N 50°54' W 001°25'0 0.0
2018-Apr-20 09:29N 50°54' W 001°25'0 0.0
2018-Apr-20 08:56N 50°54' W 001°25'0 0.0
2018-Apr-20 08:23N 50°54' W 001°25'0 0.0
2018-Apr-20 07:56N 50°54' W 001°25'0 0.0
2018-Apr-20 07:29N 50°54' W 001°25'0 0.0
2018-Apr-20 06:59N 50°54' W 001°25'0 0.3
2018-Apr-20 06:31N 50°54' W 001°25'2 4.9
2018-Apr-20 06:00N 50°52' W 001°22'5 9.3
2018-Apr-20 05:30N 50°49' W 001°18'4 7.3
2018-Apr-20 05:00N 50°46' W 001°14'815.7
2018-Apr-20 04:30N 50°43' W 001°02'5 9.8
2018-Apr-20 04:00N 50°39' W 000°59'5 9.8
2018-Apr-20 03:30N 50°34' W 001°01'611.7
2018-Apr-20 03:00N 50°31' W 001°08'612.3
2018-Apr-20 02:30N 50°27' W 001°16'611.7
2018-Apr-20 02:00N 50°26' W 001°25'712.8
2018-Apr-20 01:30N 50°25' W 001°35'713.7
2018-Apr-20 01:00N 50°24' W 001°46'713.5
2018-Apr-20 00:30N 50°23' W 001°56'714.9
2018-Apr-20 00:00N 50°20' W 002°07'815.8
2018-Apr-19 23:30N 50°17' W 002°19'816.2
2018-Apr-19 23:00N 50°15' W 002°31'917.4
2018-Apr-19 22:29N 50°13' W 002°45'817.7
2018-Apr-19 22:00N 50°13' W 002°58'917.8
2018-Apr-19 21:30N 50°08' W 003°10'918.2
2018-Apr-19 21:00N 50°03' W 003°21'917.7
2018-Apr-19 20:30N 49°56' W 003°31'917.6
2018-Apr-19 20:01N 49°49' W 003°38'917.1
2018-Apr-19 19:30N 49°41' W 003°43'917.0
2018-Apr-19 19:00N 49°33' W 003°50'1017.8
2018-Apr-19 18:27N 49°26' W 004°00'1617.6
2018-Apr-19 17:33N 49°15' W 004°17'4617.2
2018-Apr-19 14:53N 48°43' W 005°08'1616.1
2018-Apr-19 13:53N 48°31' W 005°24'1414.8
2018-Apr-19 12:58N 48°20' W 005°34'1215.3
2018-Apr-19 12:11N 48°09' W 005°41'315.1
2018-Apr-19 12:00N 48°06' W 005°43'714.9
2018-Apr-19 11:30N 47°60' W 005°49'714.8
2018-Apr-19 11:00N 47°54' W 005°55'914.9
2018-Apr-19 10:22N 47°46' W 006°02'514.9
2018-Apr-19 10:00N 47°41' W 006°07'915.1
2018-Apr-19 09:23N 47°33' W 006°14'39611.6
2018-Apr-17 23:15N 41°14' W 008°53'412.5
2018-Apr-17 22:58N 41°12' W 008°49'511.5
2018-Apr-17 22:30N 41°10' W 008°43'1 2.8
2018-Apr-17 21:58N 41°11' W 008°42'0 0.0
2018-Apr-17 21:28N 41°11' W 008°42'0 0.0
2018-Apr-17 21:00N 41°11' W 008°42'0 0.0
2018-Apr-17 20:31N 41°11' W 008°42'0 0.0
2018-Apr-17 19:59N 41°11' W 008°42'0 0.0
2018-Apr-17 19:29N 41°11' W 008°42'0 0.0
2018-Apr-17 19:00N 41°11' W 008°42'0 0.0
2018-Apr-17 18:31N 41°11' W 008°42'0 0.0
2018-Apr-17 18:00N 41°11' W 008°42'0 0.0
2018-Apr-17 17:29N 41°11' W 008°42'0 0.0
2018-Apr-17 16:59N 41°11' W 008°42'0 0.0
2018-Apr-17 16:29N 41°11' W 008°42'0 0.0
2018-Apr-17 15:59N 41°11' W 008°42'0 0.0
2018-Apr-17 15:29N 41°11' W 008°42'0 0.0
2018-Apr-17 14:59N 41°11' W 008°42'0 0.0
2018-Apr-17 14:29N 41°11' W 008°42'0 0.0
2018-Apr-17 13:59N 41°11' W 008°42'0 0.0
2018-Apr-17 13:29N 41°11' W 008°42'0 0.0
2018-Apr-17 12:59N 41°11' W 008°42'0 0.0
2018-Apr-17 12:28N 41°11' W 008°42'0 0.0
2018-Apr-17 11:58N 41°11' W 008°42'0 0.0
2018-Apr-17 11:28N 41°11' W 008°42'0 0.0
2018-Apr-17 10:58N 41°11' W 008°42'0 0.0
2018-Apr-17 10:28N 41°11' W 008°42'0 0.0
2018-Apr-17 09:58N 41°11' W 008°42'0 0.0
2018-Apr-17 09:30N 41°11' W 008°42'0 0.0
2018-Apr-17 09:00N 41°11' W 008°42'0 0.0
2018-Apr-17 08:30N 41°11' W 008°42'0 0.0
2018-Apr-17 08:00N 41°11' W 008°42'0 0.0
2018-Apr-17 07:30N 41°11' W 008°42'0 0.0
2018-Apr-17 07:00N 41°11' W 008°42'0 0.0
2018-Apr-17 06:31N 41°11' W 008°42'2 3.7
2018-Apr-17 06:00N 41°09' W 008°43'4 8.8
2018-Apr-17 05:30N 41°06' W 008°46'10013.3
2018-Apr-16 22:00N 39°35' W 009°40'714.4
2018-Apr-16 21:30N 39°28' W 009°44'715.0
2018-Apr-16 21:01N 39°21' W 009°47'714.6
2018-Apr-16 20:30N 39°14' W 009°49'714.5
2018-Apr-16 20:00N 39°07' W 009°50'714.5
2018-Apr-16 19:30N 38°60' W 009°51'714.4
2018-Apr-16 19:00N 38°53' W 009°51'714.4
2018-Apr-16 18:30N 38°45' W 009°51'714.6
2018-Apr-16 18:00N 38°38' W 009°49'714.4
2018-Apr-16 17:30N 38°32' W 009°45'714.6
2018-Apr-16 17:00N 38°24' W 009°44'814.8
2018-Apr-16 16:26N 38°16' W 009°42'614.7
2018-Apr-16 16:00N 38°10' W 009°40'714.7
2018-Apr-16 15:31N 38°03' W 009°38'714.7
2018-Apr-16 15:01N 37°56' W 009°35'714.8
2018-Apr-16 14:31N 37°49' W 009°33'714.7
2018-Apr-16 14:00N 37°41' W 009°31'  

Dump ship's entire track history